aviador You're here:

SBGR Decoded Metar

SAO PAULO in BRAZIL
Report Time2018-06-25 06:00:00
UTC Time2018-06-25 06:10:16
Flight Rules ifr IFR
Wind080° at 02 kt
W.Decomp.*RWY 09: 2.0 kt HW 0.3 kt RCW
W.Rank080° ranks 1
Current wind is below 080° avg. (5.4)
Visibility4000 m
Phenomena:Mist
Clouds:N/A
CeilingNone
Temp14°C (ISA +4)
Dew Point14°C (100% RH)
QNH1020 hPa
Density Alt2,907 ft
Elevation2,461 ft
Report Wrong Elevation
Raw Report
METAR SBGR 250600Z 08002KT 4000 BR NSC 14/14 Q1020=

Extra information for SBGR:More info

Metar Taf Metar & Taf Last 4 Metars F.Rules Stats Wind Profile Meteogram Temp Stats Airport Information Weather charts Add Link Nearby VenuesMetar ALERT Operation Metar Decoded Social comments